The Last Hurrah — WDE760 — position and weather

sailwx.info

Track history (hours):
 
Tides and Currents Weather Stations Pressure Air Temp Water Temp Dewpoint Dewpoint Depression Visibility Wind Speed Wind Dir Waves Ship Positions

The Last Hurrah

Last reported at 2017-Oct-07 06:21 UTC. Time now 2017-Nov-24 14:55 UTC.
Position N 33°37' W 117°54'.
Warning: this ship's position is 48 days out of date.

Length 26 m.

Type: Pleasure craft. MMSI: 367395330.

Date/timePositionNaut miles runAvg speedWind from/ knotsBaromVisibWave heightAir tempDewpointWater temp
2017-Oct-07 06:21N 33°37' W 117°54'  
2017-Sep-27 17:35N 33°37' W 117°54'1 5.7
2017-Sep-27 17:28N 33°36' W 117°54'3 5.6
2017-Sep-27 17:00N 33°36' W 117°57'2914.6
2017-Sep-27 15:00N 33°45' W 118°30'1311.7
2017-Sep-27 13:51N 33°51' W 118°44'411.7
2017-Sep-27 13:29N 33°53' W 118°49'611.6
2017-Sep-27 12:57N 33°56' W 118°55'511.6
2017-Sep-27 12:30N 33°59' W 119°01'611.5
2017-Sep-27 11:59N 34°02' W 119°07'711.4
2017-Sep-27 11:24N 34°05' W 119°14'410.6
2017-Sep-27 10:59N 34°06' W 119°19'510.8
2017-Sep-27 10:29N 34°08' W 119°25'511.0
2017-Sep-27 10:00N 34°10' W 119°32'611.5
2017-Sep-27 09:30N 34°11' W 119°38'612.0
2017-Sep-27 09:00N 34°13' W 119°45'612.1
2017-Sep-27 08:28N 34°14' W 119°53'812.0
2017-Sep-27 07:50N 34°16' W 120°02'411.6
2017-Sep-27 07:29N 34°18' W 120°06'511.5
2017-Sep-27 07:00N 34°19' W 120°13'611.5
2017-Sep-27 06:29N 34°21' W 120°20'  
Track history (hours):
 
Tides and Currents Weather Stations Pressure Air Temp Water Temp Dewpoint Dewpoint Depression Visibility Wind Speed Wind Dir Waves Ship Positions

The Last Hurrah

Last reported at 2017-Oct-07 06:21 UTC. Time now 2017-Nov-24 14:55 UTC.
Position N 33°37' W 117°54'.
Warning: this ship's position is 48 days out of date.

Length 26 m.

Type: Pleasure craft. MMSI: 367395330.

Date/timePositionNaut miles runAvg speedWind from/ knotsBaromVisibWave heightAir tempDewpointWater temp
2017-Oct-07 06:21N 33°37' W 117°54'  
2017-Sep-27 17:35N 33°37' W 117°54'1 5.7
2017-Sep-27 17:28N 33°36' W 117°54'3 5.6
2017-Sep-27 17:00N 33°36' W 117°57'2914.6
2017-Sep-27 15:00N 33°45' W 118°30'1311.7
2017-Sep-27 13:51N 33°51' W 118°44'411.7
2017-Sep-27 13:29N 33°53' W 118°49'611.6
2017-Sep-27 12:57N 33°56' W 118°55'511.6
2017-Sep-27 12:30N 33°59' W 119°01'611.5
2017-Sep-27 11:59N 34°02' W 119°07'711.4
2017-Sep-27 11:24N 34°05' W 119°14'410.6
2017-Sep-27 10:59N 34°06' W 119°19'510.8
2017-Sep-27 10:29N 34°08' W 119°25'511.0
2017-Sep-27 10:00N 34°10' W 119°32'611.5
2017-Sep-27 09:30N 34°11' W 119°38'612.0
2017-Sep-27 09:00N 34°13' W 119°45'612.1
2017-Sep-27 08:28N 34°14' W 119°53'812.0
2017-Sep-27 07:50N 34°16' W 120°02'411.6
2017-Sep-27 07:29N 34°18' W 120°06'511.5
2017-Sep-27 07:00N 34°19' W 120°13'611.5
2017-Sep-27 06:29N 34°21' W 120°20'  

Dump ship's entire track history